createdAt,value
2022-10-09T00:04:39.908Z,7.4
2022-10-09T00:06:43.906Z,7.4
2022-10-09T00:08:50.902Z,7.3
2022-10-09T00:10:54.853Z,7.3
2022-10-09T00:12:58.823Z,7.3
2022-10-09T00:15:02.789Z,7.2
2022-10-09T00:17:06.769Z,7.2
2022-10-09T00:19:10.721Z,7.3
2022-10-09T00:21:14.662Z,7.3
2022-10-09T00:23:21.651Z,7.2
2022-10-09T00:25:25.613Z,7.2
2022-10-09T00:27:29.580Z,7.2
2022-10-09T00:29:33.533Z,7.2
2022-10-09T00:31:37.601Z,7.2
2022-10-09T00:33:41.655Z,7.2
2022-10-09T00:35:45.624Z,7.1
2022-10-09T00:37:52.588Z,7.1
2022-10-09T00:39:56.544Z,7.1
2022-10-09T00:42:00.478Z,7
2022-10-09T00:43:03.969Z,7
2022-10-09T00:45:07.912Z,7
2022-10-09T00:47:11.864Z,7
2022-10-09T00:49:15.947Z,7
2022-10-09T00:51:22.903Z,7.1
2022-10-09T00:53:26.850Z,7.1
2022-10-09T00:57:34.760Z,7
2022-10-09T00:59:38.673Z,7
2022-10-09T01:01:42.748Z,7
2022-10-09T01:03:46.616Z,7
2022-10-09T01:05:53.531Z,6.9
2022-10-09T01:07:57.506Z,6.9
2022-10-09T01:10:01.520Z,6.9
2022-10-09T01:12:05.401Z,6.9
2022-10-09T01:14:09.346Z,6.9
2022-10-09T01:16:13.471Z,6.9
2022-10-09T01:18:17.320Z,6.9
2022-10-09T01:20:24.300Z,6.8
2022-10-09T01:22:28.225Z,6.9
2022-10-09T01:24:32.182Z,6.8
2022-10-09T01:26:36.173Z,6.8
2022-10-09T01:28:40.129Z,6.8
2022-10-09T01:32:48.259Z,6.7
2022-10-09T01:34:54.961Z,6.7
2022-10-09T01:36:59.117Z,6.7
2022-10-09T01:39:02.959Z,6.7
2022-10-09T01:40:06.499Z,6.7
2022-10-09T01:44:14.399Z,6.7
2022-10-09T01:46:18.428Z,6.7
2022-10-09T01:50:29.232Z,6.7
2022-10-09T01:54:37.208Z,6.7
2022-10-09T01:56:41.140Z,6.6
2022-10-09T01:58:45.181Z,6.6
2022-10-09T02:00:49.206Z,6.6
2022-10-09T02:02:56.317Z,6.6
2022-10-09T02:05:00.306Z,6.6
2022-10-09T02:07:04.330Z,6.5
2022-10-09T02:09:08.266Z,6.5
2022-10-09T02:15:20.072Z,6.4
2022-10-09T02:17:27.014Z,6.5
2022-10-09T02:19:30.922Z,6.5
2022-10-09T02:21:34.868Z,6.4
2022-10-09T02:23:38.792Z,6.4
2022-10-09T02:25:42.706Z,6.4
2022-10-09T02:27:46.666Z,6.3
2022-10-09T02:29:50.577Z,6.4
2022-10-09T02:31:57.514Z,6.3
2022-10-09T02:34:01.442Z,6.3
2022-10-09T02:36:05.452Z,6.3
2022-10-09T02:37:08.929Z,6.3
2022-10-09T02:41:16.806Z,6.2
2022-10-09T02:43:20.837Z,6.2
2022-10-09T02:45:27.874Z,6
2022-10-09T02:47:31.797Z,6.1
2022-10-09T02:49:35.711Z,6
2022-10-09T02:51:39.743Z,6.1
2022-10-09T02:53:45.345Z,6.2
2022-10-09T02:55:49.213Z,6.2
2022-10-09T02:57:53.146Z,6.2
2022-10-09T03:00:00.170Z,6.2
2022-10-09T03:02:04.251Z,6.2
2022-10-09T03:04:08.100Z,6.1
2022-10-09T03:06:12.147Z,6.1
2022-10-09T03:08:16.160Z,6
2022-10-09T03:10:20.094Z,5.9
2022-10-09T03:12:24.097Z,6
2022-10-09T03:14:31.350Z,6
2022-10-09T03:16:35.186Z,5.9
2022-10-09T03:18:39.063Z,5.9
2022-10-09T03:20:42.979Z,5.9
2022-10-09T03:22:47.417Z,5.9
2022-10-09T03:24:51.058Z,5.8
2022-10-09T03:26:55.098Z,5.8
2022-10-09T03:29:02.237Z,5.7
2022-10-09T03:31:06.298Z,5.7
2022-10-09T03:33:10.142Z,5.7
2022-10-09T03:35:32.600Z,5.6
2022-10-09T03:37:36.474Z,5.6
2022-10-09T03:43:51.355Z,5.6
2022-10-09T03:45:57.375Z,5.6
2022-10-09T03:47:59.392Z,5.6
2022-10-09T03:50:03.384Z,5.6
2022-10-09T03:52:07.308Z,5.6
2022-10-09T03:54:11.207Z,5.6
2022-10-09T03:56:18.360Z,5.5
2022-10-09T03:58:22.357Z,5.5
2022-10-09T04:00:26.364Z,5.5
2022-10-09T04:02:30.455Z,5.5
2022-10-09T04:04:34.392Z,5.5
2022-10-09T04:06:38.387Z,5.4
2022-10-09T04:08:42.299Z,5.4
2022-10-09T04:17:01.430Z,5.4
2022-10-09T04:19:05.439Z,5.5
2022-10-09T04:21:09.337Z,5.4
2022-10-09T04:23:13.352Z,5.5
2022-10-09T04:25:20.392Z,5.4
2022-10-09T04:27:24.398Z,5.5
2022-10-09T04:29:28.386Z,5.4
2022-10-09T04:30:31.961Z,5.4
2022-10-09T04:32:35.852Z,5.4
2022-10-09T04:34:39.848Z,5.5
2022-10-09T04:36:43.762Z,5.4
2022-10-09T04:38:50.928Z,5.3
2022-10-09T04:40:54.900Z,5.3
2022-10-09T04:42:58.899Z,5.3
2022-10-09T04:45:02.899Z,5.3
2022-10-09T04:47:11.166Z,5.2
2022-10-09T04:49:10.900Z,5.3
2022-10-09T04:51:14.885Z,5.2
2022-10-09T04:53:21.930Z,5.2
2022-10-09T04:55:25.821Z,5.3
2022-10-09T04:57:29.698Z,5.2
2022-10-09T04:59:33.594Z,5.2
2022-10-09T05:01:38.643Z,5.2
2022-10-09T05:03:41.469Z,5.2
2022-10-09T05:05:45.359Z,5.2
2022-10-09T05:07:52.471Z,5.2
2022-10-09T05:09:56.360Z,5.2
2022-10-09T05:12:00.368Z,5.2
2022-10-09T05:14:04.371Z,5.1
2022-10-09T05:16:08.316Z,5.1
2022-10-09T05:18:12.240Z,5.1
2022-10-09T05:20:16.223Z,5.1
2022-10-09T05:24:27.229Z,5.1
2022-10-09T05:26:31.197Z,5
2022-10-09T05:27:34.875Z,5.1
2022-10-09T05:29:38.642Z,5.1
2022-10-09T05:31:46.907Z,5.1
2022-10-09T05:33:46.571Z,5
2022-10-09T05:35:53.574Z,5
2022-10-09T05:37:57.453Z,4.9
2022-10-09T05:40:01.505Z,4.9
2022-10-09T05:42:05.403Z,4.9
2022-10-09T05:44:09.397Z,4.9
2022-10-09T05:46:13.450Z,4.9
2022-10-09T05:48:17.508Z,4.9
2022-10-09T05:50:24.369Z,4.9
2022-10-09T05:52:28.365Z,4.9
2022-10-09T05:54:32.225Z,4.9
2022-10-09T05:56:36.102Z,4.9
2022-10-09T06:00:44.075Z,4.9
2022-10-09T06:02:48.229Z,4.9
2022-10-09T06:04:54.871Z,5
2022-10-09T06:06:58.874Z,5
2022-10-09T06:09:02.859Z,5
2022-10-09T06:11:06.839Z,5
2022-10-09T06:13:10.821Z,5
2022-10-09T06:15:14.804Z,5.1
2022-10-09T06:17:18.782Z,5.1
2022-10-09T06:19:25.788Z,5.2
2022-10-09T06:21:29.777Z,5.2
2022-10-09T06:23:33.749Z,5.2
2022-10-09T06:24:37.289Z,5.3
2022-10-09T06:26:41.271Z,5.3
2022-10-09T06:28:45.336Z,5.4
2022-10-09T06:30:49.296Z,5.4
2022-10-09T06:32:56.242Z,5.5
2022-10-09T06:35:00.154Z,5.4
2022-10-09T06:37:04.027Z,5.5
2022-10-09T06:39:07.896Z,5.5
2022-10-09T06:41:11.865Z,5.5
2022-10-09T06:43:15.900Z,5.5
2022-10-09T06:47:26.851Z,5.7
2022-10-09T06:49:30.836Z,5.7
2022-10-09T06:51:34.743Z,5.7
2022-10-09T06:53:38.731Z,5.9
2022-10-09T06:55:42.695Z,5.9
2022-10-09T06:57:46.748Z,6
2022-10-09T06:59:50.640Z,6.1
2022-10-09T07:01:57.805Z,6.2
2022-10-09T07:04:01.591Z,6.3
2022-10-09T07:06:05.463Z,6.2
2022-10-09T07:08:09.385Z,6.3
2022-10-09T07:10:13.264Z,7.5
2022-10-09T07:12:17.285Z,8.7
2022-10-09T07:14:21.305Z,9.6
2022-10-09T07:16:28.400Z,10.8
2022-10-09T07:18:32.255Z,11.1
2022-10-09T07:20:36.271Z,11.7
2022-10-09T07:23:00.296Z,12.3
2022-10-09T07:25:04.208Z,12.3
2022-10-09T07:27:08.134Z,12.7
2022-10-09T07:29:15.121Z,13.7
2022-10-09T07:31:19.225Z,14
2022-10-09T07:33:23.093Z,14.3
2022-10-09T07:35:27.055Z,14
2022-10-09T07:37:30.996Z,13
2022-10-09T07:39:34.965Z,11.7
2022-10-09T07:41:38.916Z,11.7
2022-10-09T07:43:45.918Z,12.2
2022-10-09T07:45:49.926Z,12.2
2022-10-09T07:47:53.876Z,11.2
2022-10-09T07:49:57.843Z,10.6
2022-10-09T07:52:01.833Z,11.1
2022-10-09T07:54:05.826Z,11.4
2022-10-09T07:56:09.794Z,11.3
2022-10-09T07:58:16.808Z,11
2022-10-09T08:00:20.818Z,11
2022-10-09T08:02:24.872Z,10.9
2022-10-09T08:04:28.819Z,10.7
2022-10-09T08:06:32.847Z,10.2
2022-10-09T08:08:36.850Z,10
2022-10-09T08:10:40.875Z,10.4
2022-10-09T08:12:48.236Z,10.1
2022-10-09T08:14:52.329Z,10.1
2022-10-09T08:16:55.946Z,10.3
2022-10-09T08:17:59.458Z,10.2
2022-10-09T08:20:03.521Z,10.3
2022-10-09T08:22:07.521Z,10.5
2022-10-09T08:24:11.566Z,10.5
2022-10-09T08:26:18.631Z,10.6
2022-10-09T08:28:22.724Z,10.7
2022-10-09T08:36:38.945Z,11.6
2022-10-09T08:40:49.938Z,11.6
2022-10-09T08:42:53.989Z,11.6
2022-10-09T08:47:02.116Z,11.8
2022-10-09T08:49:06.140Z,12
2022-10-09T08:51:11.821Z,12.2
2022-10-09T08:53:15.818Z,12.2
2022-10-09T08:55:22.964Z,12.3
2022-10-09T08:57:27.060Z,12.5
2022-10-09T08:59:31.114Z,12.6
2022-10-09T09:01:35.232Z,12.6
2022-10-09T09:03:39.252Z,13.1
2022-10-09T09:05:43.329Z,13.2
2022-10-09T09:07:47.418Z,13.3
2022-10-09T09:09:54.509Z,13.4
2022-10-09T09:11:58.618Z,13.3
2022-10-09T09:14:02.697Z,13.2
2022-10-09T09:25:29.699Z,13.6
2022-10-09T09:27:33.797Z,13.8
2022-10-09T09:31:42.068Z,13.8
2022-10-09T09:33:46.109Z,13.7
2022-10-09T09:35:50.214Z,13.8
2022-10-09T09:44:09.651Z,14
2022-10-09T09:46:13.773Z,14.2
2022-10-09T09:50:45.501Z,14.3
2022-10-09T09:52:29.093Z,14.7
2022-10-09T09:54:33.212Z,14.7
2022-10-09T09:56:59.869Z,15
2022-10-09T09:58:41.444Z,15
2022-10-09T10:00:45.631Z,14.9
2022-10-09T10:02:49.985Z,14.8
2022-10-09T10:04:53.822Z,15.2
2022-10-09T10:07:00.892Z,15.2
2022-10-09T10:09:05.038Z,14.9
2022-10-09T10:12:12.708Z,15.2
2022-10-09T10:14:16.848Z,15.2
2022-10-09T10:16:21.005Z,15.3
2022-10-09T10:18:25.088Z,15.4
2022-10-09T10:20:32.229Z,15.7
2022-10-09T10:28:48.705Z,15.4
2022-10-09T10:30:52.853Z,15.4
2022-10-09T10:35:04.098Z,15.8
2022-10-09T10:39:12.343Z,15.9
2022-10-09T10:41:16.487Z,16.2
2022-10-09T10:43:20.620Z,16.3
2022-10-09T10:45:24.775Z,16.5
2022-10-09T10:47:28.872Z,17.5
2022-10-09T10:49:36.007Z,17.8
2022-10-09T10:51:40.145Z,17.3
2022-10-09T10:53:44.289Z,18.1
2022-10-09T10:55:48.426Z,18.6
2022-10-09T10:57:52.636Z,18.4
2022-10-09T10:59:56.701Z,18.8
2022-10-09T11:02:00.829Z,19.1
2022-10-09T11:04:08.008Z,20.4
2022-10-09T11:06:12.103Z,19.5
2022-10-09T11:08:16.238Z,19
2022-10-09T11:10:34.794Z,20
2022-10-09T11:12:47.806Z,20.5
2022-10-09T11:14:43.065Z,21.4
2022-10-09T11:16:50.213Z,20.8
2022-10-09T11:23:02.617Z,19.8
2022-10-09T11:27:10.905Z,20.5
2022-10-09T11:35:30.491Z,20.7
2022-10-09T11:39:38.743Z,20.7
2022-10-09T11:41:42.889Z,20.9
2022-10-09T11:45:54.269Z,20.4
2022-10-09T11:47:58.316Z,21.1
2022-10-09T11:50:02.474Z,20.9
2022-10-09T11:52:06.625Z,20.6
2022-10-09T11:56:14.885Z,18
2022-10-09T11:58:19.058Z,17.4
2022-10-09T12:00:26.186Z,16.7
2022-10-09T12:02:30.451Z,16.8
2022-10-09T12:04:54.105Z,17.1
2022-10-09T12:07:42.196Z,17.4
2022-10-09T12:09:46.336Z,17.6
2022-10-09T12:11:50.461Z,17.7
2022-10-09T12:13:57.606Z,17.7
2022-10-09T12:16:01.762Z,17.4
2022-10-09T12:18:05.904Z,17
2022-10-09T12:22:14.187Z,16.8
2022-10-09T12:24:18.317Z,16.9
2022-10-09T12:26:22.434Z,16.9
2022-10-09T12:28:29.735Z,16.7
2022-10-09T12:30:33.788Z,16.9
2022-10-09T12:32:37.864Z,17
2022-10-09T12:36:46.132Z,16.5
2022-10-09T12:38:50.285Z,16.9
2022-10-09T12:43:01.565Z,16.9
2022-10-09T12:53:22.245Z,17
2022-10-09T12:55:26.578Z,17
2022-10-09T12:57:33.556Z,16.9
2022-10-09T13:01:41.985Z,17
2022-10-09T13:04:49.539Z,16.8
2022-10-09T13:06:53.671Z,16.7
2022-10-09T13:08:57.838Z,16.8
2022-10-09T13:11:04.974Z,16.9
2022-10-09T13:13:09.132Z,16.7
2022-10-09T13:15:18.254Z,16.7
2022-10-09T13:17:17.391Z,16.8
2022-10-09T13:19:21.520Z,16.9
2022-10-09T13:21:25.644Z,16.8
2022-10-09T13:23:29.792Z,16.8
2022-10-09T13:25:37.111Z,16.9
2022-10-09T13:27:41.058Z,16.9
2022-10-09T13:29:45.199Z,16.8
2022-10-09T13:31:49.349Z,16.9
2022-10-09T13:33:53.474Z,17
2022-10-09T13:35:57.591Z,17.8
2022-10-09T13:38:01.739Z,17.7
2022-10-09T13:40:08.877Z,16.9
2022-10-09T13:42:13.028Z,16.8
2022-10-09T13:44:17.166Z,16.7
2022-10-09T13:46:21.370Z,16.8
2022-10-09T13:48:25.427Z,16.9
2022-10-09T13:56:44.978Z,16.6
2022-10-09T13:58:49.133Z,16.7
2022-10-09T14:08:12.269Z,16.9
2022-10-09T14:16:28.808Z,16.6
2022-10-09T14:26:52.524Z,16.7
2022-10-09T14:28:56.632Z,16.7
2022-10-09T14:31:00.772Z,16.7
2022-10-09T14:35:09.029Z,16.7
2022-10-09T14:39:20.310Z,17
2022-10-09T14:41:24.453Z,16.9
2022-10-09T14:43:28.560Z,16.9
2022-10-09T14:45:32.692Z,16.8
2022-10-09T14:49:42.535Z,16.8
2022-10-09T14:51:49.645Z,16.7
2022-10-09T14:53:53.769Z,16.7
2022-10-09T14:55:57.895Z,16.6
2022-10-09T14:58:22.412Z,17
2022-10-09T15:00:26.535Z,17.4
2022-10-09T15:02:30.705Z,18.6
2022-10-09T15:04:37.823Z,18.9
2022-10-09T15:06:41.933Z,18.9
2022-10-09T15:08:46.093Z,19.5
2022-10-09T15:10:50.224Z,19.4
2022-10-09T15:12:54.337Z,19.3
2022-10-09T15:14:58.491Z,19.4
2022-10-09T15:17:02.626Z,19.4
2022-10-09T15:19:09.783Z,19.3
2022-10-09T15:21:13.911Z,19.4
2022-10-09T15:23:18.059Z,19.8
2022-10-09T15:25:22.214Z,19.5
2022-10-09T15:27:26.351Z,19.5
2022-10-09T15:29:30.497Z,19.3
2022-10-09T15:31:34.639Z,18.3
2022-10-09T15:35:45.918Z,16.7
2022-10-09T15:37:52.504Z,16.5
2022-10-09T15:41:58.365Z,16.3
2022-10-09T15:46:06.643Z,16.1
2022-10-09T15:48:13.780Z,16
2022-10-09T15:50:17.934Z,16
2022-10-09T15:53:25.623Z,16
2022-10-09T15:55:29.939Z,16
2022-10-09T15:57:33.920Z,15.9
2022-10-09T15:59:38.050Z,15.9
2022-10-09T16:01:45.223Z,15.8
2022-10-09T16:03:49.338Z,15.7
2022-10-09T16:05:53.465Z,15.7
2022-10-09T16:07:57.608Z,15.7
2022-10-09T16:10:01.733Z,15.7
2022-10-09T16:12:05.852Z,15.6
2022-10-09T16:14:10.000Z,15.5
2022-10-09T16:16:17.131Z,15.4
2022-10-09T16:18:21.263Z,15.3
2022-10-09T16:20:25.393Z,15.3
2022-10-09T16:22:29.514Z,15.2
2022-10-09T16:24:33.650Z,15.1
2022-10-09T16:26:37.788Z,15
2022-10-09T16:28:42.016Z,15
2022-10-09T16:34:57.306Z,14.8
2022-10-09T16:37:01.429Z,14.7
2022-10-09T16:39:05.571Z,14.6
2022-10-09T16:41:09.681Z,14.5
2022-10-09T16:43:13.809Z,14.4
2022-10-09T16:45:20.949Z,14.2
2022-10-09T16:47:25.068Z,14.2
2022-10-09T16:49:29.188Z,14.1
2022-10-09T16:54:41.002Z,13.7
2022-10-09T16:56:45.113Z,13.6
2022-10-09T16:58:52.236Z,13.5
2022-10-09T17:00:56.433Z,13.5
2022-10-09T17:03:00.471Z,13.2
2022-10-09T17:05:04.579Z,12.9
2022-10-09T17:07:08.707Z,12.7
2022-10-09T17:11:16.921Z,12.4
2022-10-09T17:19:36.339Z,11.9
2022-10-09T17:23:44.535Z,11.7
2022-10-09T17:25:48.627Z,11.6
2022-10-09T17:27:55.723Z,11.6
2022-10-09T17:32:03.919Z,11.5
2022-10-09T17:34:08.013Z,11.4
2022-10-09T17:36:12.103Z,11.3
2022-10-09T17:38:16.181Z,11.2
2022-10-09T17:40:20.271Z,11.1
2022-10-09T17:42:27.365Z,11
2022-10-09T17:44:31.435Z,11
2022-10-09T17:46:35.504Z,11
2022-10-09T17:47:39.073Z,11
2022-10-09T17:51:47.228Z,10.8
2022-10-09T18:04:14.662Z,10.5
2022-10-09T18:06:18.768Z,10.4
2022-10-09T18:12:33.949Z,10.3
2022-10-09T18:14:38.005Z,10.3
2022-10-09T18:16:42.092Z,10.2
2022-10-09T18:18:46.129Z,10.1
2022-10-09T18:20:50.181Z,10.1
2022-10-09T18:25:01.313Z,9.9
2022-10-09T18:27:05.353Z,9.9
2022-10-09T18:29:09.405Z,9.9
2022-10-09T18:31:13.457Z,9.8
2022-10-09T18:33:17.494Z,9.8
2022-10-09T18:35:21.574Z,9.7
2022-10-09T18:37:25.578Z,9.7
2022-10-09T18:39:32.618Z,9.7
2022-10-09T18:41:36.666Z,9.6
2022-10-09T18:56:26.229Z,9.2
2022-10-09T19:00:34.276Z,9.2
2022-10-09T19:06:49.468Z,9
2022-10-09T19:08:53.475Z,9
2022-10-09T19:10:57.482Z,9
2022-10-09T19:13:01.510Z,9
2022-10-09T19:15:11.053Z,9
2022-10-09T19:17:09.549Z,8.9
2022-10-09T19:19:13.544Z,8.9
2022-10-09T19:21:20.563Z,8.8
2022-10-09T19:23:24.567Z,8.7
2022-10-09T19:33:44.585Z,8.6
2022-10-09T19:37:55.604Z,8.6
2022-10-09T19:41:03.207Z,8.5
2022-10-09T19:43:07.214Z,8.5
2022-10-09T19:45:11.200Z,8.5
2022-10-09T19:47:15.190Z,8.5
2022-10-09T19:51:26.201Z,8.4
2022-10-09T19:53:30.169Z,8.5
2022-10-09T19:55:34.297Z,8.4
2022-10-09T19:57:38.148Z,8.4
2022-10-09T19:59:42.143Z,8.3
2022-10-09T20:01:46.125Z,8.2
2022-10-09T20:03:53.290Z,8.1
2022-10-09T20:05:57.112Z,8.1
2022-10-09T20:08:01.085Z,8.1
2022-10-09T20:10:05.054Z,8
2022-10-09T20:12:09.056Z,8
2022-10-09T20:14:13.017Z,8
2022-10-09T20:16:16.998Z,8
2022-10-09T20:18:23.997Z,8
2022-10-09T20:20:27.964Z,7.9
2022-10-09T20:32:58.950Z,7.7
2022-10-09T20:34:58.781Z,7.7
2022-10-09T20:37:02.752Z,7.7
2022-10-09T20:38:06.240Z,7.7
2022-10-09T20:40:10.203Z,7.7
2022-10-09T20:42:14.158Z,7.7
2022-10-09T20:44:18.116Z,7.7
2022-10-09T20:46:26.651Z,7.7
2022-10-09T20:48:30.662Z,7.7
2022-10-09T20:50:34.596Z,7.6
2022-10-09T20:52:38.569Z,7.6
2022-10-09T20:54:42.527Z,7.6
2022-10-09T20:56:46.478Z,7.6
2022-10-09T20:58:50.450Z,7.5
2022-10-09T21:00:57.460Z,7.5
2022-10-09T21:03:01.382Z,7.4
2022-10-09T21:05:05.335Z,7.3
2022-10-09T21:07:09.301Z,7.3
2022-10-09T21:11:17.212Z,7.3
2022-10-09T21:13:21.192Z,7.2
2022-10-09T21:15:28.168Z,7.2
2022-10-09T21:17:32.117Z,7.2
2022-10-09T21:19:36.061Z,7.2
2022-10-09T21:21:40.027Z,7.2
2022-10-09T21:23:43.977Z,7.4
2022-10-09T21:25:47.924Z,7.4
2022-10-09T21:27:51.986Z,7.5
2022-10-09T21:32:02.892Z,7.5
2022-10-09T21:35:10.325Z,7.6
2022-10-09T21:41:22.190Z,7.4
2022-10-09T21:45:33.096Z,7.3
2022-10-09T21:47:37.048Z,7.3
2022-10-09T21:49:40.992Z,7.2
2022-10-09T21:51:44.944Z,7.2
2022-10-09T21:55:52.834Z,7.1
2022-10-09T21:57:59.806Z,7.1
2022-10-09T22:02:07.687Z,7.1
2022-10-09T22:04:11.642Z,7.1
2022-10-09T22:08:19.543Z,7.3
2022-10-09T22:10:23.483Z,7.3
2022-10-09T22:12:30.430Z,7.2
2022-10-09T22:14:34.404Z,7.1
2022-10-09T22:16:38.321Z,7.2
2022-10-09T22:18:42.267Z,7.1
2022-10-09T22:20:46.218Z,7.1
2022-10-09T22:22:50.439Z,7.1
2022-10-09T22:24:54.102Z,7
2022-10-09T22:27:01.040Z,6.9
2022-10-09T22:29:05.022Z,7
2022-10-09T22:33:31.090Z,6.8
2022-10-09T22:35:35.118Z,6.8
2022-10-09T22:37:39.079Z,6.8
2022-10-09T22:39:46.024Z,6.8
2022-10-09T22:41:49.946Z,6.8
2022-10-09T22:43:53.900Z,6.8
2022-10-09T22:45:57.931Z,6.8
2022-10-09T22:48:01.883Z,6.8
2022-10-09T22:50:05.844Z,6.7
2022-10-09T22:52:09.766Z,6.7
2022-10-09T22:54:16.695Z,6.7
2022-10-09T22:56:20.664Z,6.6
2022-10-09T22:58:24.594Z,6.6
2022-10-09T23:00:28.656Z,6.7
2022-10-09T23:02:32.470Z,6.7
2022-10-09T23:04:36.417Z,6.8
2022-10-09T23:06:40.360Z,6.7
2022-10-09T23:08:47.388Z,6.7
2022-10-09T23:10:51.343Z,6.7
2022-10-09T23:12:55.290Z,6.7
2022-10-09T23:17:03.140Z,6.8
2022-10-09T23:19:07.361Z,6.8
2022-10-09T23:21:11.145Z,6.9
2022-10-09T23:25:22.114Z,7
2022-10-09T23:28:29.691Z,7.1
2022-10-09T23:30:33.558Z,7
2022-10-09T23:32:37.503Z,6.9
2022-10-09T23:34:41.420Z,6.8
2022-10-09T23:43:00.515Z,6.6
2022-10-09T23:45:04.456Z,6.6
2022-10-09T23:47:08.376Z,6.5
2022-10-09T23:49:12.299Z,6.5
2022-10-09T23:51:19.257Z,6.4
2022-10-09T23:53:23.203Z,6.4
2022-10-09T23:55:27.122Z,6.4
2022-10-09T23:57:31.179Z,6.4
2022-10-09T23:59:35.128Z,6.4
